Pelican of London — MWAQ — position and weather

sailwx.info

Track history (hours):
 
Tides and Currents Weather Stations Pressure Air Temp Water Temp Dewpoint Dewpoint Depression Visibility Wind Speed Wind Dir Waves Ship Positions

Pelican of London

Ship's website: http://www.adventureundersail.com/

Last reported at 2017-Sep-29 22:40 UTC. Time now 2017-Oct-22 15:35 UTC.
Position N 50°10' W 005°03'.
Warning: this ship's position is 22 days out of date.

Length 35 m; draft 3.9 m.

Type: Sailing vessel. MMSI: 235057366.

Date/timePositionNaut miles runAvg speedWind from/ knotsBaromVisibWave heightAir tempDewpointWater temp
2017-Sep-29 22:40N 50°10' W 005°03'0 0.0
2017-Sep-29 21:53N 50°10' W 005°03'0 0.0
2017-Sep-29 15:26N 50°10' W 005°03'3 3.8
2017-Sep-29 14:41N 50°07' W 005°01'2 8.0
2017-Sep-29 14:30N 50°05' W 005°01'38 5.2
2017-Sep-29 07:16N 50°08' W 006°00'2 5.2
2017-Sep-29 06:54N 50°10' W 006°00'2 5.2
2017-Sep-29 06:27N 50°12' W 006°00'2 5.3
2017-Sep-29 05:59N 50°15' W 006°00'5 5.2
2017-Sep-29 05:04N 50°20' W 006°01'  
2017-Sep-26 06:07N 52°29' W 005°10'16 7.8
2017-Sep-26 04:03N 52°45' W 005°17'1 7.7
2017-Sep-26 03:58N 52°45' W 005°17'70 6.1
2017-Sep-25 16:20N 53°52' W 005°56'2 6.9
2017-Sep-25 16:00N 53°54' W 005°58'3 6.8
2017-Sep-25 15:30N 53°57' W 005°60'3 6.7
2017-Sep-25 15:00N 53°60' W 006°02'3 0.1
2017-Sep-24 11:40N 54°02' W 006°07'  
2017-Sep-22 02:00N 54°07' W 005°43'1 2.1
2017-Sep-22 01:30N 54°08' W 005°41'1 2.2
2017-Sep-22 01:00N 54°09' W 005°40'1 2.1
2017-Sep-22 00:31N 54°09' W 005°39'1 2.2
2017-Sep-22 00:01N 54°10' W 005°37'1 2.3
2017-Sep-21 23:30N 54°11' W 005°36'1 2.5
2017-Sep-21 23:00N 54°12' W 005°35'1 2.2
2017-Sep-21 22:30N 54°13' W 005°33'2 3.1
2017-Sep-21 22:01N 54°14' W 005°32'3 5.3
2017-Sep-21 21:31N 54°16' W 005°29'3 5.6
2017-Sep-21 21:00N 54°18' W 005°25'3 5.4
2017-Sep-21 20:31N 54°20' W 005°22'3 5.4
2017-Sep-21 20:01N 54°22' W 005°19'3 5.5
2017-Sep-21 19:31N 54°24' W 005°17'3 5.3
2017-Sep-21 19:00N 54°27' W 005°16'2 5.0
2017-Sep-21 18:31N 54°29' W 005°16'3 5.1
2017-Sep-21 18:01N 54°32' W 005°17'3 5.3
2017-Sep-21 17:31N 54°34' W 005°19'2 4.9
2017-Sep-21 17:00N 54°36' W 005°21'2 4.4
2017-Sep-21 16:31N 54°38' W 005°22'2 3.5
2017-Sep-21 16:01N 54°40' W 005°24'2 3.3
2017-Sep-21 15:30N 54°41' W 005°26'1 2.9
2017-Sep-21 15:01N 54°42' W 005°27'1 2.4
2017-Sep-21 14:30N 54°43' W 005°28'1 3.0
2017-Sep-21 14:01N 54°43' W 005°30'3 5.5
2017-Sep-21 13:30N 54°43' W 005°35'2 4.7
2017-Sep-21 13:00N 54°43' W 005°39'2 4.6
2017-Sep-21 12:31N 54°43' W 005°43'0 0.1
2017-Sep-21 12:01N 54°43' W 005°43'0 0.0
2017-Sep-21 11:31N 54°43' W 005°43'0 0.0
2017-Sep-21 11:00N 54°43' W 005°43'0 0.0
2017-Sep-21 10:31N 54°43' W 005°43'0 0.1
2017-Sep-21 10:00N 54°43' W 005°43'0 0.0
2017-Sep-21 09:31N 54°43' W 005°43'0 0.0
2017-Sep-21 09:01N 54°43' W 005°43'0 0.0
2017-Sep-21 08:30N 54°43' W 005°43'0 0.0
2017-Sep-21 08:00N 54°43' W 005°43'0 0.0
2017-Sep-21 07:31N 54°43' W 005°43'0 0.0
2017-Sep-21 07:00N 54°43' W 005°43'0 0.0
2017-Sep-21 06:30N 54°43' W 005°43'0 0.0
2017-Sep-21 06:01N 54°43' W 005°43'0 0.0
2017-Sep-21 05:31N 54°43' W 005°43'0 0.0
2017-Sep-21 05:01N 54°43' W 005°43'0 0.0
2017-Sep-21 04:30N 54°43' W 005°43'0 0.0
2017-Sep-21 04:00N 54°43' W 005°43'0 0.0
2017-Sep-21 03:31N 54°43' W 005°43'0 0.0
2017-Sep-21 03:00N 54°43' W 005°43'0 0.0
2017-Sep-21 02:30N 54°43' W 005°43'0 0.0
2017-Sep-21 02:01N 54°43' W 005°43'0 0.0
2017-Sep-21 01:31N 54°43' W 005°43'0 0.0
2017-Sep-21 01:00N 54°43' W 005°43'0 0.0
2017-Sep-21 00:30N 54°43' W 005°43'0 0.0
2017-Sep-21 00:00N 54°43' W 005°43'0 0.0
2017-Sep-20 23:30N 54°43' W 005°43'0 0.0
2017-Sep-20 23:00N 54°43' W 005°43'0 0.1
2017-Sep-20 22:30N 54°43' W 005°43'0 0.0
2017-Sep-20 22:01N 54°43' W 005°43'0 0.0
2017-Sep-20 21:30N 54°43' W 005°43'0 0.0
2017-Sep-20 21:00N 54°43' W 005°43'0 0.0
2017-Sep-20 20:31N 54°43' W 005°43'0 0.0
2017-Sep-20 20:01N 54°43' W 005°43'0 0.0
2017-Sep-20 19:30N 54°43' W 005°43'0 0.0
2017-Sep-20 19:00N 54°43' W 005°43'0 0.0
2017-Sep-20 18:30N 54°43' W 005°43'0 0.0
2017-Sep-20 18:01N 54°43' W 005°43'0 0.0
2017-Sep-20 17:31N 54°43' W 005°43'1 1.9
2017-Sep-20 17:00N 54°43' W 005°42'1 2.1
2017-Sep-20 16:30N 54°42' W 005°42'2 3.2
2017-Sep-20 16:01N 54°40' W 005°41'2 4.9
2017-Sep-20 15:30N 54°41' W 005°37'3 5.7
2017-Sep-20 15:00N 54°42' W 005°32'7 6.7
2017-Sep-20 14:01N 54°37' W 005°25'4 8.8
2017-Sep-20 13:30N 54°34' W 005°20'4 8.3
2017-Sep-20 13:00N 54°31' W 005°14'4 7.9
2017-Sep-20 12:31N 54°28' W 005°09'4 7.7
2017-Sep-20 12:00N 54°26' W 005°04'  
Track history (hours):
 
Tides and Currents Weather Stations Pressure Air Temp Water Temp Dewpoint Dewpoint Depression Visibility Wind Speed Wind Dir Waves Ship Positions

Pelican of London

Ship's website: http://www.adventureundersail.com/

Last reported at 2017-Sep-29 22:40 UTC. Time now 2017-Oct-22 15:35 UTC.
Position N 50°10' W 005°03'.
Warning: this ship's position is 22 days out of date.

Length 35 m; draft 3.9 m.

Type: Sailing vessel. MMSI: 235057366.

Date/timePositionNaut miles runAvg speedWind from/ knotsBaromVisibWave heightAir tempDewpointWater temp
2017-Sep-29 22:40N 50°10' W 005°03'0 0.0
2017-Sep-29 21:53N 50°10' W 005°03'0 0.0
2017-Sep-29 15:26N 50°10' W 005°03'3 3.8
2017-Sep-29 14:41N 50°07' W 005°01'2 8.0
2017-Sep-29 14:30N 50°05' W 005°01'38 5.2
2017-Sep-29 07:16N 50°08' W 006°00'2 5.2
2017-Sep-29 06:54N 50°10' W 006°00'2 5.2
2017-Sep-29 06:27N 50°12' W 006°00'2 5.3
2017-Sep-29 05:59N 50°15' W 006°00'5 5.2
2017-Sep-29 05:04N 50°20' W 006°01'  
2017-Sep-26 06:07N 52°29' W 005°10'16 7.8
2017-Sep-26 04:03N 52°45' W 005°17'1 7.7
2017-Sep-26 03:58N 52°45' W 005°17'70 6.1
2017-Sep-25 16:20N 53°52' W 005°56'2 6.9
2017-Sep-25 16:00N 53°54' W 005°58'3 6.8
2017-Sep-25 15:30N 53°57' W 005°60'3 6.7
2017-Sep-25 15:00N 53°60' W 006°02'3 0.1
2017-Sep-24 11:40N 54°02' W 006°07'  
2017-Sep-22 02:00N 54°07' W 005°43'1 2.1
2017-Sep-22 01:30N 54°08' W 005°41'1 2.2
2017-Sep-22 01:00N 54°09' W 005°40'1 2.1
2017-Sep-22 00:31N 54°09' W 005°39'1 2.2
2017-Sep-22 00:01N 54°10' W 005°37'1 2.3
2017-Sep-21 23:30N 54°11' W 005°36'1 2.5
2017-Sep-21 23:00N 54°12' W 005°35'1 2.2
2017-Sep-21 22:30N 54°13' W 005°33'2 3.1
2017-Sep-21 22:01N 54°14' W 005°32'3 5.3
2017-Sep-21 21:31N 54°16' W 005°29'3 5.6
2017-Sep-21 21:00N 54°18' W 005°25'3 5.4
2017-Sep-21 20:31N 54°20' W 005°22'3 5.4
2017-Sep-21 20:01N 54°22' W 005°19'3 5.5
2017-Sep-21 19:31N 54°24' W 005°17'3 5.3
2017-Sep-21 19:00N 54°27' W 005°16'2 5.0
2017-Sep-21 18:31N 54°29' W 005°16'3 5.1
2017-Sep-21 18:01N 54°32' W 005°17'3 5.3
2017-Sep-21 17:31N 54°34' W 005°19'2 4.9
2017-Sep-21 17:00N 54°36' W 005°21'2 4.4
2017-Sep-21 16:31N 54°38' W 005°22'2 3.5
2017-Sep-21 16:01N 54°40' W 005°24'2 3.3
2017-Sep-21 15:30N 54°41' W 005°26'1 2.9
2017-Sep-21 15:01N 54°42' W 005°27'1 2.4
2017-Sep-21 14:30N 54°43' W 005°28'1 3.0
2017-Sep-21 14:01N 54°43' W 005°30'3 5.5
2017-Sep-21 13:30N 54°43' W 005°35'2 4.7
2017-Sep-21 13:00N 54°43' W 005°39'2 4.6
2017-Sep-21 12:31N 54°43' W 005°43'0 0.1
2017-Sep-21 12:01N 54°43' W 005°43'0 0.0
2017-Sep-21 11:31N 54°43' W 005°43'0 0.0
2017-Sep-21 11:00N 54°43' W 005°43'0 0.0
2017-Sep-21 10:31N 54°43' W 005°43'0 0.1
2017-Sep-21 10:00N 54°43' W 005°43'0 0.0
2017-Sep-21 09:31N 54°43' W 005°43'0 0.0
2017-Sep-21 09:01N 54°43' W 005°43'0 0.0
2017-Sep-21 08:30N 54°43' W 005°43'0 0.0
2017-Sep-21 08:00N 54°43' W 005°43'0 0.0
2017-Sep-21 07:31N 54°43' W 005°43'0 0.0
2017-Sep-21 07:00N 54°43' W 005°43'0 0.0
2017-Sep-21 06:30N 54°43' W 005°43'0 0.0
2017-Sep-21 06:01N 54°43' W 005°43'0 0.0
2017-Sep-21 05:31N 54°43' W 005°43'0 0.0
2017-Sep-21 05:01N 54°43' W 005°43'0 0.0
2017-Sep-21 04:30N 54°43' W 005°43'0 0.0
2017-Sep-21 04:00N 54°43' W 005°43'0 0.0
2017-Sep-21 03:31N 54°43' W 005°43'0 0.0
2017-Sep-21 03:00N 54°43' W 005°43'0 0.0
2017-Sep-21 02:30N 54°43' W 005°43'0 0.0
2017-Sep-21 02:01N 54°43' W 005°43'0 0.0
2017-Sep-21 01:31N 54°43' W 005°43'0 0.0
2017-Sep-21 01:00N 54°43' W 005°43'0 0.0
2017-Sep-21 00:30N 54°43' W 005°43'0 0.0
2017-Sep-21 00:00N 54°43' W 005°43'0 0.0
2017-Sep-20 23:30N 54°43' W 005°43'0 0.0
2017-Sep-20 23:00N 54°43' W 005°43'0 0.1
2017-Sep-20 22:30N 54°43' W 005°43'0 0.0
2017-Sep-20 22:01N 54°43' W 005°43'0 0.0
2017-Sep-20 21:30N 54°43' W 005°43'0 0.0
2017-Sep-20 21:00N 54°43' W 005°43'0 0.0
2017-Sep-20 20:31N 54°43' W 005°43'0 0.0
2017-Sep-20 20:01N 54°43' W 005°43'0 0.0
2017-Sep-20 19:30N 54°43' W 005°43'0 0.0
2017-Sep-20 19:00N 54°43' W 005°43'0 0.0
2017-Sep-20 18:30N 54°43' W 005°43'0 0.0
2017-Sep-20 18:01N 54°43' W 005°43'0 0.0
2017-Sep-20 17:31N 54°43' W 005°43'1 1.9
2017-Sep-20 17:00N 54°43' W 005°42'1 2.1
2017-Sep-20 16:30N 54°42' W 005°42'2 3.2
2017-Sep-20 16:01N 54°40' W 005°41'2 4.9
2017-Sep-20 15:30N 54°41' W 005°37'3 5.7
2017-Sep-20 15:00N 54°42' W 005°32'7 6.7
2017-Sep-20 14:01N 54°37' W 005°25'4 8.8
2017-Sep-20 13:30N 54°34' W 005°20'4 8.3
2017-Sep-20 13:00N 54°31' W 005°14'4 7.9
2017-Sep-20 12:31N 54°28' W 005°09'4 7.7
2017-Sep-20 12:00N 54°26' W 005°04'  

Dump ship's entire track history